Time;durP1;ratioP1;P1;durP2;ratioP2;P2;SDS_P1;SDS_P2;PMS_P1;PMS_P2;Temp;Humidity;BMP_temperature;BMP_pressure;BME280_temperature;BME280_humidity;BME280_pressure;Samples;Min_cycle;Max_cycle;Signal;HPM_P1;HPM_P2
2023/12/06 00:02:12;;;;;;;5.53;3.05;;;;;;;24.66;30.67;98861.84;4987765;28;20026;-41
2023/12/06 00:04:37;;;;;;;5.43;2.95;;;;;;;24.64;30.69;98867.13;4992754;28;20032;-41
2023/12/06 00:07:03;;;;;;;5.40;3.00;;;;;;;24.63;30.75;98869.16;4996208;28;20026;-43
2023/12/06 00:09:28;;;;;;;5.30;3.08;;;;;;;24.66;30.79;98870.13;4991916;28;20057;-41
2023/12/06 00:11:53;;;;;;;5.28;2.97;;;;;;;24.65;30.72;98866.63;4997677;28;20100;-41
2023/12/06 00:14:19;;;;;;;5.57;3.00;;;;;;;24.66;30.69;98865.38;4989518;28;20026;-41
2023/12/06 00:16:44;;;;;;;5.28;2.78;;;;;;;24.62;30.83;98866.88;4991021;28;20448;-41
2023/12/06 00:19:09;;;;;;;4.70;2.50;;;;;;;24.61;30.71;98859.88;4995564;28;20033;-42
2023/12/06 00:21:35;;;;;;;5.35;2.90;;;;;;;24.64;30.88;98867.13;4995770;28;20022;-41
2023/12/06 00:24:00;;;;;;;4.80;2.67;;;;;;;24.61;30.80;98873.66;5002164;28;20076;-42
2023/12/06 00:26:25;;;;;;;4.85;2.50;;;;;;;24.60;30.79;98874.94;4989150;28;20425;-41
2023/12/06 00:28:53;;;;;;;5.00;2.60;;;;;;;24.59;30.80;98870.66;4991823;28;20031;-42
2023/12/06 00:31:18;;;;;;;4.60;2.40;;;;;;;24.63;30.89;98874.66;4992302;28;20072;-42
2023/12/06 00:33:44;;;;;;;4.90;2.40;;;;;;;24.63;30.85;98868.38;4993140;28;20371;-41
2023/12/06 00:36:09;;;;;;;4.97;2.40;;;;;;;24.60;30.67;98872.91;4991556;28;20469;-42
2023/12/06 00:38:34;;;;;;;4.65;2.22;;;;;;;24.58;30.88;98877.47;5002662;28;20026;-42
2023/12/06 00:41:00;;;;;;;4.50;2.25;;;;;;;24.59;30.80;98881.69;4983667;28;20038;-43
2023/12/06 00:43:25;;;;;;;4.47;2.15;;;;;;;24.63;30.73;98873.91;4993550;28;20951;-41
2023/12/06 00:45:51;;;;;;;4.72;2.30;;;;;;;24.60;30.82;98869.41;4992925;28;20080;-41
2023/12/06 00:48:16;;;;;;;4.97;2.20;;;;;;;24.59;30.87;98874.19;4989171;28;20029;-40
2023/12/06 00:50:43;;;;;;;4.45;2.10;;;;;;;24.57;30.91;98878.72;4988073;28;20654;-40
2023/12/06 00:53:08;;;;;;;4.88;2.30;;;;;;;24.60;30.90;98874.94;4985805;28;20025;-40
2023/12/06 00:55:34;;;;;;;4.32;2.08;;;;;;;24.56;30.84;98877.22;4989564;28;20029;-41
2023/12/06 00:57:59;;;;;;;4.80;1.90;;;;;;;24.52;30.85;98879.50;4991523;28;20056;-42
2023/12/06 01:00:24;;;;;;;4.20;2.10;;;;;;;24.57;30.76;98879.47;4991318;28;20030;-41
2023/12/06 01:02:50;;;;;;;3.70;1.83;;;;;;;24.57;30.89;98882.22;4988909;28;20026;-41
2023/12/06 01:05:15;;;;;;;4.20;2.05;;;;;;;24.53;31.05;98881.00;4983885;28;20389;-41
2023/12/06 01:07:40;;;;;;;4.13;1.90;;;;;;;24.57;30.84;98878.72;4998656;28;20022;-41
2023/12/06 01:10:06;;;;;;;4.28;2.10;;;;;;;24.53;30.97;98881.00;4994729;28;20034;-41
2023/12/06 01:12:32;;;;;;;4.88;2.10;;;;;;;24.57;30.98;98890.50;4996169;28;20077;-40
2023/12/06 01:14:58;;;;;;;4.53;2.00;;;;;;;24.57;30.98;98887.00;4992532;28;20034;-40
2023/12/06 01:17:23;;;;;;;4.07;1.90;;;;;;;24.55;30.96;98897.78;4989461;28;20533;-40
2023/12/06 01:19:48;;;;;;;4.30;2.00;;;;;;;24.54;31.00;98893.53;4996796;28;20030;-41
2023/12/06 01:22:14;;;;;;;4.05;1.88;;;;;;;24.55;31.03;98900.56;4991920;28;20022;-41
2023/12/06 01:24:39;;;;;;;4.05;1.80;;;;;;;24.55;30.92;98897.78;4996429;28;20026;-42
2023/12/06 01:27:04;;;;;;;3.47;1.70;;;;;;;24.48;31.14;98898.31;4996433;28;20373;-41
2023/12/06 01:29:30;;;;;;;3.80;1.73;;;;;;;24.56;31.03;98904.81;4988092;28;21215;-41
2023/12/06 01:31:55;;;;;;;3.90;1.70;;;;;;;24.55;30.95;98897.78;4993807;28;20038;-41
2023/12/06 01:34:21;;;;;;;3.75;1.73;;;;;;;24.55;30.97;98911.59;4997012;28;20044;-41
2023/12/06 01:36:46;;;;;;;3.72;1.63;;;;;;;24.50;30.97;98904.06;4999677;28;20029;-41
2023/12/06 01:39:12;;;;;;;3.88;1.70;;;;;;;24.49;31.13;98908.09;4995658;28;20392;-43
2023/12/06 01:41:37;;;;;;;3.95;1.65;;;;;;;24.53;30.97;98905.81;4989578;28;20040;-42
2023/12/06 01:44:02;;;;;;;3.80;1.67;;;;;;;24.51;30.96;98914.59;4993461;28;20049;-41
2023/12/06 01:46:28;;;;;;;4.05;1.70;;;;;;;24.51;31.00;98911.09;4993476;28;20035;-41
2023/12/06 01:48:53;;;;;;;3.97;1.63;;;;;;;24.51;31.13;98919.38;4997525;28;20026;-42
2023/12/06 01:51:19;;;;;;;3.47;1.50;;;;;;;24.49;31.06;98930.16;4992374;28;20069;-41
2023/12/06 01:53:44;;;;;;;3.53;1.60;;;;;;;24.47;30.97;98925.16;4985521;28;20022;-41
2023/12/06 01:56:09;;;;;;;2.85;1.33;;;;;;;24.52;30.85;98918.88;4995689;28;20029;-41
2023/12/06 01:58:36;;;;;;;3.20;1.40;;;;;;;24.52;30.99;98934.66;4974795;28;20023;-41
2023/12/06 02:01:01;;;;;;;2.92;1.50;;;;;;;24.48;31.10;98934.19;4992456;28;20018;-40
2023/12/06 02:03:26;;;;;;;3.42;1.50;;;;;;;24.51;30.93;98938.69;4992045;28;20075;-41
2023/12/06 02:05:52;;;;;;;3.45;1.40;;;;;;;24.46;31.05;98931.16;4990975;28;20041;-41
2023/12/06 02:08:17;;;;;;;3.40;1.50;;;;;;;24.47;30.91;98938.94;4991033;28;20026;-42
2023/12/06 02:10:43;;;;;;;3.30;1.50;;;;;;;24.43;31.06;98937.69;4995088;28;20022;-42
2023/12/06 02:13:08;;;;;;;2.95;1.40;;;;;;;24.48;30.92;98931.41;4995165;28;20196;-41
2023/12/06 02:15:34;;;;;;;3.70;1.40;;;;;;;24.49;31.03;98935.69;4995826;28;20030;-42
2023/12/06 02:17:59;;;;;;;2.95;1.40;;;;;;;24.46;31.14;98942.19;4996732;28;20026;-42
2023/12/06 02:20:25;;;;;;;3.55;1.48;;;;;;;24.52;31.09;98942.94;4994686;28;20072;-42
2023/12/06 02:22:50;;;;;;;3.10;1.40;;;;;;;24.42;31.10;98941.72;4995176;28;20026;-41
2023/12/06 02:25:16;;;;;;;2.95;1.20;;;;;;;24.46;31.06;98939.44;4995150;28;20117;-42
2023/12/06 02:27:42;;;;;;;3.63;1.42;;;;;;;24.39;31.22;98935.94;4996058;28;20371;-42
2023/12/06 02:30:09;;;;;;;3.45;1.40;;;;;;;24.46;31.14;98944.97;4992639;28;20018;-41
2023/12/06 02:32:35;;;;;;;3.30;1.25;;;;;;;24.44;31.00;98928.91;4989750;28;20026;-41
2023/12/06 02:35:00;;;;;;;2.95;1.30;;;;;;;24.45;31.13;98929.66;4993795;28;20033;-41
2023/12/06 02:37:25;;;;;;;3.30;1.30;;;;;;;24.46;31.25;98939.44;4994143;28;20030;-41
2023/12/06 02:39:51;;;;;;;3.70;1.50;;;;;;;24.47;31.06;98935.44;4996346;28;20470;-42
2023/12/06 02:42:16;;;;;;;3.47;1.50;;;;;;;24.45;30.99;98940.69;4992500;28;20030;-42
2023/12/06 02:44:41;;;;;;;3.15;1.48;;;;;;;24.45;30.98;98941.44;4987080;28;20030;-41
2023/12/06 02:47:07;;;;;;;2.92;1.25;;;;;;;24.49;31.16;98947.47;4994562;28;20076;-41
2023/12/06 02:49:32;;;;;;;3.15;1.27;;;;;;;24.50;31.02;98939.94;5000053;28;20485;-41
2023/12/06 02:51:57;;;;;;;2.55;1.30;;;;;;;24.50;30.97;98937.19;4994095;28;20049;-42
2023/12/06 02:54:23;;;;;;;2.45;1.20;;;;;;;24.49;31.16;98939.19;4992246;28;20026;-41
2023/12/06 02:56:48;;;;;;;3.47;1.33;;;;;;;24.48;31.03;98945.97;5009707;28;20026;-41
2023/12/06 02:59:13;;;;;;;2.63;1.20;;;;;;;24.47;31.01;98940.94;4991927;28;20018;-41
2023/12/06 03:01:39;;;;;;;2.60;1.20;;;;;;;24.48;30.96;98943.19;4997880;28;20035;-43
2023/12/06 03:04:05;;;;;;;3.00;1.45;;;;;;;24.48;31.07;98945.97;4986163;28;20026;-41
2023/12/06 03:06:30;;;;;;;2.20;1.10;;;;;;;24.44;31.12;98939.94;4995035;28;20707;-41
2023/12/06 03:08:56;;;;;;;3.45;1.30;;;;;;;24.51;31.13;98938.69;4996919;28;20129;-41
2023/12/06 03:11:22;;;;;;;2.63;1.30;;;;;;;24.49;31.12;98944.72;5001041;28;20076;-41
2023/12/06 03:13:47;;;;;;;2.03;1.10;;;;;;;24.48;31.12;98951.47;4993289;28;20061;-41
2023/12/06 03:16:12;;;;;;;2.58;1.13;;;;;;;24.41;31.21;98943.72;4989231;28;20022;-42
2023/12/06 03:18:38;;;;;;;2.35;1.20;;;;;;;24.48;31.05;98947.97;4986401;28;20449;-41
2023/12/06 03:21:03;;;;;;;2.35;1.20;;;;;;;24.46;31.13;98947.72;4986912;28;20070;-41
2023/12/06 03:23:29;;;;;;;2.40;1.20;;;;;;;24.49;30.77;98957.75;4992098;28;20109;-41
2023/12/06 03:25:54;;;;;;;3.17;1.20;;;;;;;24.47;31.16;98954.75;4999980;28;20017;-41
2023/12/06 03:28:19;;;;;;;3.15;1.15;;;;;;;24.45;31.15;98955.25;4990198;28;20716;-42
2023/12/06 03:30:45;;;;;;;2.42;1.10;;;;;;;24.47;31.00;98954.75;4987766;28;20029;-42
2023/12/06 03:33:10;;;;;;;2.83;1.20;;;;;;;24.46;31.18;98956.00;4992530;28;20041;-41
2023/12/06 03:35:35;;;;;;;2.50;1.10;;;;;;;24.41;31.09;98945.72;4988758;28;20473;-42
2023/12/06 03:38:01;;;;;;;2.25;1.00;;;;;;;24.41;31.08;98957.50;4993301;28;20033;-42
2023/12/06 03:40:26;;;;;;;2.40;1.10;;;;;;;24.46;31.20;98956.00;4992537;28;20029;-42
2023/12/06 03:42:51;;;;;;;1.70;0.95;;;;;;;24.43;31.27;98957.00;4988101;28;20025;-41
2023/12/06 03:45:17;;;;;;;2.92;1.20;;;;;;;24.43;31.12;98957.75;4987884;28;20026;-41
2023/12/06 03:47:43;;;;;;;1.98;1.10;;;;;;;24.45;31.00;98958.00;4989237;28;20084;-40
2023/12/06 03:50:08;;;;;;;2.13;1.10;;;;;;;24.46;31.21;98956.00;4992713;28;20024;-41
2023/12/06 03:52:34;;;;;;;2.13;1.10;;;;;;;24.46;31.00;98961.50;4992603;28;20512;-42
2023/12/06 03:54:59;;;;;;;1.98;1.10;;;;;;;24.45;31.11;98957.25;4993944;28;20488;-41
2023/12/06 03:57:24;;;;;;;2.03;1.00;;;;;;;24.47;31.10;98963.03;4987392;28;20024;-42
2023/12/06 03:59:50;;;;;;;1.85;0.98;;;;;;;24.41;31.18;98957.50;4990890;28;20026;-42
2023/12/06 04:02:17;;;;;;;2.17;1.00;;;;;;;24.44;31.23;98964.78;4988464;28;20057;-41
2023/12/06 04:04:42;;;;;;;1.90;1.00;;;;;;;24.41;31.13;98965.03;4994772;28;20027;-42
2023/12/06 04:07:07;;;;;;;2.45;1.00;;;;;;;24.48;31.04;98967.28;4993098;28;20058;-41
2023/12/06 04:09:33;;;;;;;5.00;1.08;;;;;;;24.45;31.15;98971.03;4987582;28;20037;-42
2023/12/06 04:11:59;;;;;;;2.17;1.00;;;;;;;24.38;31.28;98964.78;4986826;28;20026;-41
2023/12/06 04:14:24;;;;;;;2.05;0.90;;;;;;;24.38;31.21;98970.31;4992231;28;20046;-42
2023/12/06 04:16:49;;;;;;;2.22;1.10;;;;;;;24.38;31.17;98964.78;4995269;28;20048;-41
2023/12/06 04:19:15;;;;;;;1.85;0.77;;;;;;;24.36;31.16;98970.09;4993079;28;20022;-41
2023/12/06 04:21:40;;;;;;;1.83;0.90;;;;;;;24.39;31.38;98966.28;4989533;28;20081;-42
2023/12/06 04:24:06;;;;;;;1.95;0.93;;;;;;;24.41;31.13;98963.03;4987931;28;20037;-41
2023/12/06 04:26:31;;;;;;;2.13;0.98;;;;;;;24.39;31.14;98969.03;4993404;28;20021;-41
2023/12/06 04:28:57;;;;;;;1.27;0.80;;;;;;;24.44;31.21;98966.78;4989423;28;21073;-41
2023/12/06 04:31:22;;;;;;;1.50;0.80;;;;;;;24.43;31.03;98973.56;4986900;28;20029;-40
2023/12/06 04:33:47;;;;;;;1.55;0.98;;;;;;;24.43;31.25;98976.31;4986080;28;20478;-40
2023/12/06 04:36:13;;;;;;;2.17;1.00;;;;;;;24.42;31.13;98985.84;4990604;28;20095;-41
2023/12/06 04:38:38;;;;;;;2.10;1.02;;;;;;;24.43;31.12;98979.06;4995997;28;20034;-42
2023/12/06 04:41:03;;;;;;;1.38;0.85;;;;;;;24.39;31.31;98988.34;4990187;28;20018;-40
2023/12/06 04:43:29;;;;;;;1.80;0.90;;;;;;;24.42;31.10;98991.38;4996902;28;20033;-42
2023/12/06 04:45:54;;;;;;;1.55;0.98;;;;;;;24.39;31.16;98991.13;4994150;28;20026;-41
2023/12/06 04:48:21;;;;;;;2.20;1.00;;;;;;;24.39;31.14;98999.38;4992200;28;20041;-41
2023/12/06 04:50:46;;;;;;;1.77;0.90;;;;;;;24.33;31.23;98997.91;4992024;28;20037;-42
2023/12/06 04:53:12;;;;;;;1.23;0.80;;;;;;;24.35;31.24;99001.69;4995184;28;20109;-41
2023/12/06 04:55:37;;;;;;;1.45;0.70;;;;;;;24.37;31.05;98996.41;4995925;28;20493;-41
2023/12/06 04:58:02;;;;;;;1.85;0.90;;;;;;;24.37;31.29;99001.94;4991957;28;20029;-41
2023/12/06 05:00:28;;;;;;;1.13;0.70;;;;;;;24.37;31.41;99006.69;4990202;28;20031;-42
2023/12/06 05:02:53;;;;;;;1.80;0.90;;;;;;;24.41;31.53;99000.88;4991639;28;20536;-41
2023/12/06 05:05:18;;;;;;;2.03;0.90;;;;;;;24.39;31.16;99013.19;4998381;28;20030;-40
2023/12/06 05:07:44;;;;;;;1.45;0.90;;;;;;;24.34;31.19;99008.44;4999800;28;20088;-41
2023/12/06 05:10:09;;;;;;;1.42;0.85;;;;;;;24.36;31.24;99016.97;4995940;28;20026;-41
2023/12/06 05:12:34;;;;;;;1.33;0.80;;;;;;;24.36;31.17;99011.44;4992504;28;20022;-41
2023/12/06 05:15:00;;;;;;;1.58;0.85;;;;;;;24.40;31.28;99011.16;4994898;28;20076;-42
2023/12/06 05:17:25;;;;;;;1.75;0.90;;;;;;;24.33;31.22;99017.97;4996570;28;20022;-40
2023/12/06 05:19:50;;;;;;;1.67;0.93;;;;;;;24.29;31.07;99022.25;4996472;28;20088;-41
2023/12/06 05:22:16;;;;;;;2.92;1.00;;;;;;;24.29;30.95;99028.50;4997665;28;20030;-41
2023/12/06 05:24:41;;;;;;;1.92;1.00;;;;;;;24.30;31.01;99035.53;4995632;28;20088;-40
2023/12/06 05:27:07;;;;;;;3.67;1.00;;;;;;;24.28;30.96;99029.75;4996294;28;20034;-43
2023/12/06 05:29:32;;;;;;;2.80;0.90;;;;;;;24.26;31.12;99040.53;4992310;28;20274;-41
2023/12/06 05:31:58;;;;;;;2.60;0.90;;;;;;;24.26;31.09;99035.03;4997667;28;20454;-42
2023/12/06 05:34:23;;;;;;;1.73;0.90;;;;;;;24.23;31.14;99041.50;4995638;28;20026;-42
2023/12/06 05:36:48;;;;;;;2.30;1.00;;;;;;;24.24;31.16;99047.81;4989759;28;20069;-41
2023/12/06 05:39:14;;;;;;;2.40;1.00;;;;;;;24.23;31.22;99044.28;4996473;28;20017;-42
2023/12/06 05:41:39;;;;;;;3.22;1.00;;;;;;;24.22;31.15;99048.28;4992803;28;20552;-41
2023/12/06 05:44:07;;;;;;;2.63;1.20;;;;;;;24.22;31.17;99045.53;4994698;28;20504;-42
2023/12/06 05:46:33;;;;;;;2.30;1.02;;;;;;;24.21;31.22;99049.53;4993549;28;20049;-41
2023/12/06 05:48:58;;;;;;;2.20;1.00;;;;;;;24.21;31.41;99054.28;4990217;28;20030;-42
2023/12/06 05:51:24;;;;;;;2.05;1.02;;;;;;;24.20;31.42;99059.06;4994677;28;20076;-41
2023/12/06 05:53:49;;;;;;;2.00;0.90;;;;;;;24.21;31.52;99055.03;4993367;28;20038;-42
2023/12/06 05:56:14;;;;;;;4.03;1.10;;;;;;;24.23;31.57;99051.78;4993916;28;20028;-41
2023/12/06 05:58:40;;;;;;;2.75;1.05;;;;;;;24.23;31.40;99058.06;4993104;28;20040;-41
2023/12/06 06:01:05;;;;;;;5.65;1.00;;;;;;;24.25;31.62;99057.59;4989129;28;20022;-41
2023/12/06 06:03:31;;;;;;;3.88;0.93;;;;;;;24.22;31.38;99051.03;4992846;28;20475;-41
2023/12/06 06:05:56;;;;;;;1.35;0.90;;;;;;;24.21;31.43;99063.31;4990416;28;20034;-42
2023/12/06 06:08:21;;;;;;;2.13;1.00;;;;;;;24.20;31.40;99061.81;4994559;28;20030;-42
2023/12/06 06:10:47;;;;;;;3.70;1.05;;;;;;;24.16;31.61;99069.59;4992353;28;20030;-42
2023/12/06 06:13:12;;;;;;;3.65;1.25;;;;;;;24.14;31.67;99066.59;4989686;28;20052;-42
2023/12/06 06:15:38;;;;;;;3.05;1.00;;;;;;;24.12;31.55;99063.59;4985093;28;20041;-41
2023/12/06 06:18:05;;;;;;;3.17;1.02;;;;;;;24.14;31.65;99065.84;4989733;28;20030;-41
2023/12/06 06:20:33;;;;;;;3.40;1.17;;;;;;;24.12;31.55;99071.84;4999111;28;20030;-41
2023/12/06 06:22:59;;;;;;;3.00;1.10;;;;;;;24.10;31.62;99076.38;4997562;28;20041;-41
2023/12/06 06:25:24;;;;;;;7.13;1.50;;;;;;;24.11;31.44;99077.88;4990675;28;20030;-41
2023/12/06 06:27:50;;;;;;;5.28;1.30;;;;;;;24.04;31.51;99082.63;4987528;28;20096;-42
2023/12/06 06:30:15;;;;;;;3.22;1.20;;;;;;;24.02;31.30;99087.13;4989277;28;20025;-41
2023/12/06 06:32:40;;;;;;;2.70;1.17;;;;;;;24.03;31.32;99094.91;4991920;28;20034;-41
2023/12/06 06:35:07;;;;;;;3.58;1.30;;;;;;;24.04;31.17;99090.13;4996882;28;20112;-41
2023/12/06 06:37:33;;;;;;;4.30;1.40;;;;;;;23.99;31.38;99104.66;4991139;28;20485;-41
2023/12/06 06:39:58;;;;;;;5.05;1.20;;;;;;;24.00;31.54;99103.41;4990292;28;20030;-43
2023/12/06 06:42:23;;;;;;;3.83;1.30;;;;;;;24.10;31.66;99104.69;4987304;28;20044;-41
2023/12/06 06:44:51;;;;;;;5.05;1.30;;;;;;;24.11;32.07;99111.72;4991986;28;20101;-44
2023/12/06 06:47:17;;;;;;;5.00;1.40;;;;;;;24.10;32.46;99112.22;4991930;28;21642;-41
2023/12/06 06:49:42;;;;;;;6.15;1.65;;;;;;;24.10;32.41;99114.97;4991162;28;20121;-44
2023/12/06 06:52:07;;;;;;;6.22;1.63;;;;;;;24.06;32.58;99115.22;4989540;28;20041;-44
2023/12/06 06:54:33;;;;;;;8.88;1.80;;;;;;;24.09;32.34;99116.97;4989328;28;20026;-46
2023/12/06 06:56:58;;;;;;;6.22;1.77;;;;;;;24.05;32.16;99110.94;4993234;28;20441;-45
2023/12/06 06:59:23;;;;;;;7.20;1.63;;;;;;;24.07;32.16;99116.72;4995507;28;20026;-45
2023/12/06 07:01:49;;;;;;;7.63;1.70;;;;;;;24.03;32.26;99122.47;4995078;28;20030;-45
2023/12/06 07:04:14;;;;;;;5.63;1.80;;;;;;;23.96;32.42;99131.25;4993001;28;20045;-42
2023/12/06 07:06:39;;;;;;;4.93;1.65;;;;;;;23.99;32.57;99137.75;4988763;28;20485;-52
2023/12/06 07:09:05;;;;;;;4.88;1.80;;;;;;;24.14;32.54;99143.06;4990271;28;20026;-41
2023/12/06 07:11:30;;;;;;;7.65;2.05;;;;;;;24.06;32.62;99148.28;4995407;28;20024;-45
2023/12/06 07:13:56;;;;;;;6.68;1.80;;;;;;;24.05;32.66;99146.78;4991549;28;20378;-41
2023/12/06 07:16:21;;;;;;;6.97;2.00;;;;;;;24.00;32.69;99147.53;4988570;28;20030;-46
2023/12/06 07:18:49;;;;;;;9.10;1.83;;;;;;;23.98;32.50;99150.03;4987033;28;20037;-46
2023/12/06 07:21:14;;;;;;;4.55;1.80;;;;;;;24.01;32.40;99154.53;4991362;28;20049;-44
2023/12/06 07:23:40;;;;;;;4.30;1.67;;;;;;;24.00;32.38;99166.81;4991515;28;20573;-45
2023/12/06 07:26:08;;;;;;;4.72;1.83;;;;;;;23.96;32.44;99166.34;4989524;28;20022;-45
2023/12/06 07:28:33;;;;;;;4.50;1.80;;;;;;;24.03;32.81;99171.34;4991688;28;20026;-45
2023/12/06 07:30:59;;;;;;;5.70;1.80;;;;;;;24.02;32.59;99172.59;4986482;28;20474;-40
2023/12/06 07:33:26;;;;;;;6.28;1.95;;;;;;;23.98;32.32;99177.63;4992059;28;20026;-42
2023/12/06 07:35:51;;;;;;;4.35;1.85;;;;;;;23.96;32.10;99186.38;4995172;28;20026;-44
2023/12/06 07:38:17;;;;;;;4.75;1.90;;;;;;;23.97;32.28;99184.38;4990892;28;20580;-44
2023/12/06 07:40:42;;;;;;;4.68;1.88;;;;;;;23.98;32.13;99186.59;4989058;28;20030;-44
2023/12/06 07:43:07;;;;;;;5.38;1.95;;;;;;;23.98;32.08;99191.41;4985715;28;20486;-47
2023/12/06 07:45:33;;;;;;;4.65;1.77;;;;;;;23.99;32.21;99192.88;4992025;28;20080;-45
2023/12/06 07:47:59;;;;;;;3.88;1.60;;;;;;;24.00;32.15;99191.63;4996834;28;20490;-43
2023/12/06 07:50:25;;;;;;;5.72;2.00;;;;;;;24.03;31.94;99196.91;4994686;28;20022;-47
2023/12/06 07:52:50;;;;;;;4.60;2.00;;;;;;;24.05;32.21;99205.44;4991260;28;20033;-50
2023/12/06 07:55:16;;;;;;;5.15;2.03;;;;;;;24.05;31.83;99196.41;4989769;28;20030;-47
2023/12/06 07:57:42;;;;;;;4.88;1.90;;;;;;;24.03;32.04;99198.91;4990881;28;20030;-45
2023/12/06 08:00:08;;;;;;;3.70;1.65;;;;;;;24.03;32.10;99201.66;4994850;28;20389;-44
2023/12/06 08:02:39;;;;;;;4.05;1.77;;;;;;;24.04;31.93;99211.44;4995159;28;20025;-45
2023/12/06 08:05:06;;;;;;;4.95;2.10;;;;;;;24.03;31.88;99209.94;4990352;28;20507;-44
2023/12/06 08:07:32;;;;;;;5.07;2.13;;;;;;;24.07;31.97;99212.47;4986491;28;20058;-44
2023/12/06 08:09:57;;;;;;;4.90;2.08;;;;;;;24.04;31.93;99217.72;4987803;28;20056;-40
2023/12/06 08:12:23;;;;;;;5.80;2.08;;;;;;;24.06;31.87;99219.97;4990748;28;20035;-42
2023/12/06 08:14:48;;;;;;;4.80;2.50;;;;;;;24.10;31.70;99220.50;4989881;28;20036;-40
2023/12/06 08:17:13;;;;;;;5.22;2.10;;;;;;;24.14;32.16;99221.00;4987850;28;20022;-44
2023/12/06 08:19:39;;;;;;;4.40;2.00;;;;;;;24.16;31.88;99217.75;4999499;28;20108;-43
2023/12/06 08:22:04;;;;;;;4.57;1.95;;;;;;;24.17;31.94;99231.03;4990974;28;20018;-44
2023/12/06 08:24:30;;;;;;;6.63;2.30;;;;;;;24.27;31.70;99229.56;4996505;28;20448;-42
2023/12/06 08:26:55;;;;;;;5.38;2.13;;;;;;;24.27;31.85;99220.56;4991917;28;20040;-44
2023/12/06 08:29:21;;;;;;;5.90;2.10;;;;;;;24.23;31.86;99231.78;4993095;28;20128;-42
2023/12/06 08:31:46;;;;;;;5.40;2.20;;;;;;;24.21;31.85;99231.53;4992790;28;20478;-43
2023/12/06 08:34:12;;;;;;;4.53;2.10;;;;;;;24.19;31.96;99228.53;4988362;28;20037;-43
2023/12/06 08:36:37;;;;;;;3.95;1.80;;;;;;;24.17;31.87;99236.56;4993890;28;20034;-43
2023/12/06 08:39:03;;;;;;;5.03;1.95;;;;;;;24.21;31.90;99234.28;4993211;28;20030;-43
2023/12/06 08:41:28;;;;;;;5.53;1.80;;;;;;;24.21;31.94;99241.81;4989610;28;20023;-42
2023/12/06 08:43:54;;;;;;;5.45;1.90;;;;;;;24.18;31.94;99249.06;4982105;28;20121;-42
2023/12/06 08:46:20;;;;;;;4.72;1.80;;;;;;;24.20;32.04;99252.09;4985630;28;20018;-42
2023/12/06 08:48:45;;;;;;;4.78;1.85;;;;;;;24.24;31.83;99252.63;4992870;28;20042;-42
2023/12/06 08:51:11;;;;;;;6.85;2.00;;;;;;;24.32;31.93;99253.66;4989041;28;20027;-42
2023/12/06 08:53:36;;;;;;;4.40;1.85;;;;;;;24.36;31.69;99259.69;4991322;28;20026;-42
2023/12/06 08:56:02;;;;;;;5.05;2.00;;;;;;;24.35;31.35;99258.19;4984069;28;20027;-43
2023/12/06 08:58:27;;;;;;;7.15;1.92;;;;;;;24.34;31.69;99264.97;4988301;28;20021;-42
2023/12/06 09:00:52;;;;;;;4.82;1.90;;;;;;;24.31;31.71;99254.91;4989977;28;20422;-43
2023/12/06 09:03:18;;;;;;;4.65;1.90;;;;;;;24.34;31.66;99267.72;4996129;28;20512;-43
2023/12/06 09:05:43;;;;;;;5.20;1.75;;;;;;;24.32;31.79;99263.94;4994495;28;20034;-44
2023/12/06 09:08:11;;;;;;;4.35;1.65;;;;;;;24.33;31.59;99280.00;4986472;28;20518;-43
2023/12/06 09:10:37;;;;;;;4.97;1.90;;;;;;;24.33;31.63;99273.72;4986983;28;20061;-42
2023/12/06 09:13:02;;;;;;;3.90;1.85;;;;;;;24.34;31.61;99273.22;4987745;28;20477;-43
2023/12/06 09:15:28;;;;;;;5.00;1.83;;;;;;;24.33;31.73;99282.75;4990185;28;20439;-43
2023/12/06 09:17:53;;;;;;;3.97;1.50;;;;;;;24.32;31.76;99281.25;4993863;28;20564;-43
2023/12/06 09:20:18;;;;;;;3.85;1.52;;;;;;;24.30;31.89;99277.47;4991282;28;20022;-43
2023/12/06 09:22:44;;;;;;;4.65;1.70;;;;;;;24.30;31.80;99283.75;4983784;28;20033;-42
2023/12/06 09:25:09;;;;;;;4.80;1.60;;;;;;;24.34;31.76;99287.03;4995685;28;20038;-43
2023/12/06 09:27:34;;;;;;;4.35;1.90;;;;;;;24.34;31.76;99286.28;4995411;28;20037;-42
2023/12/06 09:30:00;;;;;;;5.15;1.60;;;;;;;24.35;31.79;99288.53;5001317;28;20042;-42
2023/12/06 09:32:25;;;;;;;4.40;1.88;;;;;;;24.36;31.67;99289.28;4998159;28;20038;-42
2023/12/06 09:34:52;;;;;;;4.15;2.08;;;;;;;24.38;31.62;99297.78;4992100;28;20026;-42
2023/12/06 09:37:17;;;;;;;4.38;1.70;;;;;;;24.37;31.72;99305.34;4994458;28;20393;-42
2023/12/06 09:39:43;;;;;;;4.05;1.70;;;;;;;24.38;31.71;99306.81;4992985;28;20129;-43
2023/12/06 09:42:09;;;;;;;5.28;1.88;;;;;;;24.38;31.80;99298.53;4996076;28;20433;-42
2023/12/06 09:44:36;;;;;;;4.68;1.70;;;;;;;24.39;31.71;99297.28;4977886;28;20026;-42
2023/12/06 09:47:02;;;;;;;4.45;1.77;;;;;;;24.42;31.70;99305.84;4990545;28;20025;-43
2023/12/06 09:49:27;;;;;;;3.80;1.63;;;;;;;24.39;31.73;99302.81;4993977;28;20033;-42
2023/12/06 09:51:54;;;;;;;3.95;1.77;;;;;;;24.41;31.69;99313.34;4998185;28;20032;-43
2023/12/06 09:54:20;;;;;;;4.10;1.75;;;;;;;24.43;31.78;99310.09;4997458;28;20022;-42
2023/12/06 09:56:45;;;;;;;4.57;1.60;;;;;;;24.46;31.59;99318.13;4988630;28;20722;-43
2023/12/06 09:59:10;;;;;;;4.10;1.60;;;;;;;24.48;31.57;99310.13;4985816;28;20022;-42
2023/12/06 10:01:36;;;;;;;4.47;1.85;;;;;;;24.47;31.74;99318.91;4996226;28;20030;-43
2023/12/06 10:04:03;;;;;;;4.07;1.67;;;;;;;24.47;31.70;99316.13;4995993;28;20030;-42
2023/12/06 10:06:28;;;;;;;5.28;1.67;;;;;;;24.41;31.64;99320.88;4995294;28;20050;-42
2023/12/06 10:08:54;;;;;;;3.80;1.75;;;;;;;24.43;31.67;99323.91;4991458;28;20089;-43
2023/12/06 10:11:22;;;;;;;3.40;1.70;;;;;;;24.46;31.57;99325.66;4989380;28;20022;-42
2023/12/06 10:13:47;;;;;;;5.10;1.85;;;;;;;24.48;31.61;99331.44;4993904;28;20151;-43
2023/12/06 10:16:21;;;;;;;4.57;2.00;;;;;;;24.48;31.52;99328.69;4995759;28;20041;-43
2023/12/06 10:18:48;;;;;;;4.65;1.70;;;;;;;24.49;31.48;99330.19;4996802;28;20080;-43
2023/12/06 10:21:14;;;;;;;4.82;2.00;;;;;;;24.47;31.43;99329.94;4992964;28;20027;-43
2023/12/06 10:23:40;;;;;;;4.93;1.95;;;;;;;24.51;31.67;99325.69;4988600;28;20058;-42
2023/12/06 10:26:05;;;;;;;5.68;2.00;;;;;;;24.54;31.68;99334.97;4992539;28;20034;-42
2023/12/06 10:28:35;;;;;;;5.15;2.33;;;;;;;24.54;31.60;99324.69;4997261;28;20028;-43
2023/12/06 10:31:03;;;;;;;7.00;2.33;;;;;;;24.57;31.58;99331.22;4994866;28;20104;-42
2023/12/06 10:33:31;;;;;;;6.78;2.58;;;;;;;24.57;31.95;99333.97;4993876;28;20097;-43
2023/12/06 10:35:59;;;;;;;5.85;2.55;;;;;;;24.59;31.71;99329.44;4987878;28;20026;-42
2023/12/06 10:38:24;;;;;;;8.57;2.72;;;;;;;24.57;32.06;99331.97;4989504;28;20098;-43
2023/12/06 10:40:50;;;;;;;7.50;2.50;;;;;;;24.66;32.19;99328.22;4976835;28;20042;-43
2023/12/06 10:43:15;;;;;;;7.20;2.83;;;;;;;24.69;33.27;99329.97;4989706;28;20041;-41
2023/12/06 10:45:40;;;;;;;7.32;2.72;;;;;;;24.64;32.18;99336.25;4991899;28;20473;-43
2023/12/06 10:48:06;;;;;;;8.50;3.03;;;;;;;24.64;32.38;99336.25;4974993;28;20032;-43
2023/12/06 10:50:32;;;;;;;7.63;2.65;;;;;;;24.66;32.64;99330.97;5004843;28;20026;-44
2023/12/06 10:52:57;;;;;;;6.72;2.65;;;;;;;24.67;32.71;99322.19;4995167;28;20061;-42
2023/12/06 10:55:22;;;;;;;7.68;2.67;;;;;;;24.69;32.87;99329.97;4994159;28;20057;-47
2023/12/06 10:57:48;;;;;;;6.43;2.55;;;;;;;24.70;32.60;99329.47;4973159;28;20508;-45
2023/12/06 11:00:14;;;;;;;5.70;2.47;;;;;;;24.71;32.64;99341.28;4971161;28;20381;-48
2023/12/06 11:02:39;;;;;;;7.18;2.92;;;;;;;24.70;32.82;99334.25;4992797;28;20030;-45
2023/12/06 11:05:05;;;;;;;6.40;2.50;;;;;;;24.71;32.99;99338.53;4981263;28;20141;-43
2023/12/06 11:08:00;;;;;;;7.68;2.80;;;;;;;24.79;32.77;99334.00;4996137;28;20022;-45
2023/12/06 11:10:52;;;;;;;6.93;3.03;;;;;;;24.75;32.87;99335.53;4991259;28;20469;-44
2023/12/06 11:13:45;;;;;;;7.45;3.00;;;;;;;24.80;32.76;99335.50;4997855;28;20034;-48
2023/12/06 11:16:48;;;;;;;7.38;2.78;;;;;;;24.70;32.83;99342.53;4992120;28;20034;-43
2023/12/06 11:19:14;;;;;;;12.68;3.35;;;;;;;24.59;32.61;99336.97;4984678;28;20033;-42
2023/12/06 11:21:39;;;;;;;6.60;3.28;;;;;;;24.60;32.60;99328.19;4969930;28;20486;-42
2023/12/06 11:24:07;;;;;;;7.00;3.28;;;;;;;24.67;32.43;99326.97;4986062;28;20038;-41
2023/12/06 11:26:32;;;;;;;6.90;3.47;;;;;;;24.68;32.42;99328.47;4988626;28;20019;-42
2023/12/06 11:28:58;;;;;;;7.78;3.58;;;;;;;24.69;32.52;99332.75;4987945;28;20032;-42